createdAt,value
2023-02-28T00:00:48.521Z,0.00
2023-02-28T00:01:48.609Z,0.00
2023-02-28T00:02:48.501Z,0.00
2023-02-28T00:03:48.490Z,0.00
2023-02-28T00:04:48.480Z,0.00
2023-02-28T00:05:48.448Z,0.00
2023-02-28T00:06:48.422Z,0.00
2023-02-28T00:07:48.452Z,0.00
2023-02-28T00:08:48.425Z,0.00
2023-02-28T00:09:48.418Z,0.00
2023-02-28T00:10:48.462Z,0.00
2023-02-28T00:11:48.397Z,0.00
2023-02-28T00:12:48.410Z,0.00
2023-02-28T00:13:48.373Z,0.00
2023-02-28T00:14:48.349Z,0.00
2023-02-28T00:15:51.019Z,0.00
2023-02-28T00:16:48.443Z,0.00
2023-02-28T00:17:48.329Z,0.00
2023-02-28T00:18:48.334Z,0.00
2023-02-28T00:19:48.322Z,0.00
2023-02-28T00:20:48.285Z,0.00
2023-02-28T00:21:48.289Z,0.00
2023-02-28T00:22:48.291Z,0.00
2023-02-28T00:23:48.296Z,0.00
2023-02-28T00:24:48.237Z,0.00
2023-02-28T00:25:48.244Z,0.00
2023-02-28T00:26:48.236Z,0.00
2023-02-28T00:27:48.233Z,0.00
2023-02-28T00:28:48.251Z,0.00
2023-02-28T00:29:48.209Z,0.00
2023-02-28T00:30:48.261Z,0.00
2023-02-28T00:31:48.193Z,0.00
2023-02-28T00:32:48.190Z,0.00
2023-02-28T00:33:48.138Z,0.00
2023-02-28T00:34:48.129Z,0.00
2023-02-28T00:35:48.192Z,0.00
2023-02-28T00:36:48.145Z,0.00
2023-02-28T00:37:48.112Z,0.00
2023-02-28T00:38:48.103Z,0.00
2023-02-28T00:39:48.078Z,0.00
2023-02-28T00:40:48.052Z,0.00
2023-02-28T00:41:48.057Z,0.00
2023-02-28T00:42:48.063Z,0.00
2023-02-28T00:43:48.063Z,0.00
2023-02-28T00:44:48.041Z,0.00
2023-02-28T00:45:48.032Z,0.00
2023-02-28T00:46:48.009Z,0.00
2023-02-28T00:47:47.997Z,0.00
2023-02-28T00:48:48.029Z,0.00
2023-02-28T00:49:47.967Z,0.00
2023-02-28T00:50:47.976Z,0.00
2023-02-28T00:51:47.936Z,0.00
2023-02-28T00:52:48.086Z,0.00
2023-02-28T00:53:47.929Z,0.00
2023-02-28T00:54:47.906Z,0.00
2023-02-28T00:55:47.934Z,0.00
2023-02-28T00:56:47.896Z,0.00
2023-02-28T00:57:47.888Z,0.00
2023-02-28T00:58:47.934Z,0.00
2023-02-28T00:59:47.894Z,0.00
2023-02-28T01:00:47.885Z,0.00
2023-02-28T01:01:47.890Z,0.00
2023-02-28T01:02:47.830Z,0.00
2023-02-28T01:03:47.972Z,0.00
2023-02-28T01:04:47.911Z,0.00
2023-02-28T01:05:48.013Z,0.00
2023-02-28T01:06:47.784Z,0.00
2023-02-28T01:07:47.832Z,0.00
2023-02-28T01:08:47.773Z,0.00
2023-02-28T01:09:47.771Z,0.00
2023-02-28T01:10:47.769Z,0.00
2023-02-28T01:11:47.716Z,0.00
2023-02-28T01:12:47.716Z,0.00
2023-02-28T01:13:47.717Z,0.00
2023-02-28T01:14:47.692Z,0.00
2023-02-28T01:15:47.761Z,0.00
2023-02-28T01:16:47.705Z,0.00
2023-02-28T01:17:47.658Z,0.00
2023-02-28T01:18:47.662Z,0.00
2023-02-28T01:19:47.670Z,0.00
2023-02-28T01:24:47.499Z,0.00
2023-02-28T01:25:45.740Z,0.00
2023-02-28T01:26:45.699Z,0.00
2023-02-28T01:27:45.686Z,0.00
2023-02-28T01:28:45.660Z,0.00
2023-02-28T01:29:45.670Z,0.00
2023-02-28T01:30:45.710Z,0.00
2023-02-28T01:31:45.676Z,0.00
2023-02-28T01:32:45.624Z,0.00
2023-02-28T01:33:45.640Z,0.00
2023-02-28T01:34:45.617Z,0.00
2023-02-28T01:35:45.637Z,0.00
2023-02-28T01:36:45.603Z,0.00
2023-02-28T01:37:45.598Z,0.00
2023-02-28T01:38:45.562Z,0.00
2023-02-28T01:39:45.578Z,0.00
2023-02-28T01:40:45.536Z,0.00
2023-02-28T01:41:45.524Z,0.00
2023-02-28T01:42:45.539Z,0.00
2023-02-28T01:43:45.515Z,0.00
2023-02-28T01:44:45.516Z,0.00
2023-02-28T01:45:45.561Z,0.00
2023-02-28T01:46:45.522Z,0.00
2023-02-28T01:47:45.462Z,0.00
2023-02-28T01:48:45.477Z,0.00
2023-02-28T01:49:45.460Z,0.00
2023-02-28T01:50:45.425Z,0.00
2023-02-28T01:51:45.412Z,0.00
2023-02-28T01:52:45.420Z,0.00
2023-02-28T01:53:45.438Z,0.00
2023-02-28T01:54:45.413Z,0.00
2023-02-28T01:55:45.397Z,0.00
2023-02-28T01:56:45.382Z,0.00
2023-02-28T01:57:45.357Z,0.00
2023-02-28T01:58:45.359Z,0.00
2023-02-28T01:59:45.321Z,0.00
2023-02-28T02:00:45.355Z,0.00
2023-02-28T02:01:45.337Z,0.00
2023-02-28T02:02:45.354Z,0.00
2023-02-28T02:03:45.283Z,0.00
2023-02-28T02:04:45.291Z,0.00
2023-02-28T02:05:45.283Z,0.00
2023-02-28T02:06:45.265Z,0.00
2023-02-28T02:07:45.242Z,0.00
2023-02-28T02:08:45.225Z,0.00
2023-02-28T02:09:45.221Z,0.00
2023-02-28T02:10:45.901Z,0.00
2023-02-28T02:11:45.202Z,0.00
2023-02-28T02:12:45.185Z,0.00
2023-02-28T02:13:45.183Z,0.00
2023-02-28T02:14:45.149Z,0.00
2023-02-28T02:15:45.216Z,0.00
2023-02-28T02:16:45.139Z,0.00
2023-02-28T02:17:45.126Z,0.00
2023-02-28T02:18:45.131Z,0.00
2023-02-28T02:19:45.143Z,0.00
2023-02-28T02:20:45.108Z,0.00
2023-02-28T02:21:45.121Z,0.00
2023-02-28T02:22:45.079Z,0.00
2023-02-28T02:23:45.058Z,0.00
2023-02-28T02:24:45.053Z,0.00
2023-02-28T02:25:45.039Z,0.00
2023-02-28T02:26:45.055Z,0.00
2023-02-28T02:27:45.015Z,0.00
2023-02-28T02:28:45.017Z,0.00
2023-02-28T02:29:44.989Z,0.00
2023-02-28T02:30:45.010Z,0.00
2023-02-28T02:31:45.043Z,0.00
2023-02-28T02:32:44.969Z,0.00
2023-02-28T02:33:44.971Z,0.00
2023-02-28T02:34:44.971Z,0.00
2023-02-28T02:35:44.974Z,0.00
2023-02-28T02:36:44.950Z,0.00
2023-02-28T02:37:44.914Z,0.00
2023-02-28T02:38:44.919Z,0.00
2023-02-28T02:39:44.903Z,0.00
2023-02-28T02:40:44.898Z,0.00
2023-02-28T02:41:44.872Z,0.00
2023-02-28T02:42:44.870Z,0.00
2023-02-28T02:43:44.858Z,0.00
2023-02-28T02:44:44.854Z,0.00
2023-02-28T02:45:44.810Z,0.00
2023-02-28T02:46:44.867Z,0.00
2023-02-28T02:47:44.826Z,0.00
2023-02-28T02:48:44.792Z,0.00
2023-02-28T02:49:44.802Z,0.00
2023-02-28T02:50:44.788Z,0.00
2023-02-28T02:51:44.785Z,0.00
2023-02-28T02:52:45.483Z,0.00
2023-02-28T02:53:44.749Z,0.00
2023-02-28T02:54:44.753Z,0.00
2023-02-28T02:55:44.721Z,0.00
2023-02-28T02:56:44.707Z,0.00
2023-02-28T02:57:44.687Z,0.00
2023-02-28T02:58:44.734Z,0.00
2023-02-28T02:59:44.692Z,0.00
2023-02-28T03:00:44.743Z,0.00
2023-02-28T03:01:44.653Z,0.00
2023-02-28T03:02:44.651Z,0.00
2023-02-28T03:03:44.704Z,0.00
2023-02-28T03:04:44.620Z,0.00
2023-02-28T03:05:44.624Z,0.00
2023-02-28T03:06:44.605Z,0.00
2023-02-28T03:07:44.587Z,0.00
2023-02-28T03:08:44.581Z,0.00
2023-02-28T03:09:44.565Z,0.00
2023-02-28T03:10:44.670Z,0.00
2023-02-28T03:11:44.560Z,0.00
2023-02-28T03:12:44.572Z,0.00
2023-02-28T03:13:44.546Z,0.00
2023-02-28T03:14:44.510Z,0.00
2023-02-28T03:15:44.492Z,0.00
2023-02-28T03:16:45.262Z,0.00
2023-02-28T03:17:44.525Z,0.00
2023-02-28T03:18:44.450Z,0.00
2023-02-28T03:19:44.459Z,0.00
2023-02-28T03:20:44.620Z,0.00
2023-02-28T03:21:44.473Z,0.00
2023-02-28T03:22:44.418Z,0.00
2023-02-28T03:23:44.412Z,0.00
2023-02-28T03:24:44.387Z,0.00
2023-02-28T03:25:44.372Z,0.00
2023-02-28T03:26:44.385Z,0.00
2023-02-28T03:27:44.395Z,0.00
2023-02-28T03:28:44.380Z,0.00
2023-02-28T03:29:44.327Z,0.00
2023-02-28T03:30:44.349Z,0.00
2023-02-28T03:31:44.357Z,0.00
2023-02-28T03:32:44.341Z,0.00
2023-02-28T03:33:44.382Z,0.00
2023-02-28T03:34:44.293Z,0.00
2023-02-28T03:35:44.295Z,0.00
2023-02-28T03:36:44.268Z,0.00
2023-02-28T03:37:44.291Z,0.00
2023-02-28T03:38:44.239Z,0.00
2023-02-28T03:39:44.241Z,0.00
2023-02-28T03:40:44.241Z,0.00
2023-02-28T03:41:44.199Z,0.00
2023-02-28T03:42:44.206Z,0.00
2023-02-28T03:43:44.302Z,0.00
2023-02-28T03:44:44.170Z,0.00
2023-02-28T03:45:44.195Z,0.00
2023-02-28T03:46:44.912Z,0.00
2023-02-28T03:47:44.185Z,0.00
2023-02-28T03:48:44.170Z,0.00
2023-02-28T03:49:44.130Z,0.00
2023-02-28T03:50:44.131Z,0.00
2023-02-28T03:51:44.102Z,0.00
2023-02-28T03:52:44.104Z,0.00
2023-02-28T03:53:44.125Z,0.00
2023-02-28T03:54:44.071Z,0.00
2023-02-28T03:55:44.095Z,0.00
2023-02-28T03:56:44.057Z,0.00
2023-02-28T03:57:44.041Z,0.00
2023-02-28T03:58:44.053Z,0.00
2023-02-28T03:59:44.195Z,0.00
2023-02-28T04:00:44.065Z,0.00
2023-02-28T04:01:44.060Z,0.00
2023-02-28T04:02:43.990Z,0.00
2023-02-28T04:03:44.031Z,0.00
2023-02-28T04:04:44.139Z,0.00
2023-02-28T04:05:43.950Z,0.00
2023-02-28T04:06:43.959Z,0.00
2023-02-28T04:07:43.930Z,0.00
2023-02-28T04:08:43.929Z,0.00
2023-02-28T04:09:43.900Z,0.00
2023-02-28T04:10:43.998Z,0.00
2023-02-28T04:11:43.995Z,0.00
2023-02-28T04:12:43.868Z,0.00
2023-02-28T04:13:45.126Z,0.00
2023-02-28T04:14:43.932Z,0.00
2023-02-28T04:15:43.996Z,0.00
2023-02-28T04:16:43.895Z,0.00
2023-02-28T04:17:43.818Z,0.00
2023-02-28T04:18:43.822Z,0.00
2023-02-28T04:19:43.970Z,0.00
2023-02-28T04:20:43.807Z,0.00
2023-02-28T04:21:43.886Z,0.00
2023-02-28T04:22:43.786Z,0.00
2023-02-28T04:23:43.747Z,0.00
2023-02-28T04:24:43.767Z,0.00
2023-02-28T04:25:43.725Z,0.00
2023-02-28T04:26:43.730Z,0.00
2023-02-28T04:27:43.696Z,0.00
2023-02-28T04:28:43.796Z,0.00
2023-02-28T04:29:43.701Z,0.00
2023-02-28T04:30:43.706Z,0.00
2023-02-28T04:31:43.764Z,0.00
2023-02-28T04:32:43.857Z,0.00
2023-02-28T04:33:43.742Z,0.00
2023-02-28T04:34:43.655Z,0.00
2023-02-28T04:35:43.698Z,0.00
2023-02-28T04:36:43.637Z,0.00
2023-02-28T04:37:43.588Z,0.00
2023-02-28T04:38:43.571Z,0.00
2023-02-28T04:39:43.606Z,0.00
2023-02-28T04:40:43.589Z,0.00
2023-02-28T04:41:44.332Z,0.00
2023-02-28T04:42:43.559Z,0.00
2023-02-28T04:43:44.297Z,0.00
2023-02-28T04:44:43.567Z,0.00
2023-02-28T04:45:43.616Z,0.00
2023-02-28T04:46:43.495Z,0.00
2023-02-28T04:47:43.506Z,0.00
2023-02-28T04:48:43.497Z,0.00
2023-02-28T04:49:43.556Z,0.00
2023-02-28T04:50:44.137Z,0.00
2023-02-28T04:51:43.452Z,0.00
2023-02-28T04:52:43.516Z,0.00
2023-02-28T04:53:43.409Z,0.00
2023-02-28T04:54:43.453Z,0.00
2023-02-28T04:55:43.466Z,0.00
2023-02-28T04:56:43.483Z,0.00
2023-02-28T04:57:43.393Z,0.00
2023-02-28T04:58:43.422Z,0.00
2023-02-28T04:59:43.359Z,0.00
2023-02-28T05:00:43.351Z,0.00
2023-02-28T05:01:44.276Z,0.00
2023-02-28T05:02:43.326Z,0.00
2023-02-28T05:03:43.316Z,0.00
2023-02-28T05:04:43.338Z,0.00
2023-02-28T05:05:43.384Z,0.00
2023-02-28T05:06:43.278Z,0.00
2023-02-28T05:07:43.264Z,0.00
2023-02-28T05:08:43.277Z,0.00
2023-02-28T05:09:43.266Z,0.00
2023-02-28T05:10:43.237Z,0.00
2023-02-28T05:11:43.219Z,0.00
2023-02-28T05:12:43.300Z,0.00
2023-02-28T05:13:43.466Z,0.00
2023-02-28T05:14:43.243Z,0.00
2023-02-28T05:15:43.258Z,0.00
2023-02-28T05:16:43.149Z,0.00
2023-02-28T05:17:43.150Z,0.00
2023-02-28T05:18:43.240Z,0.00
2023-02-28T05:19:43.134Z,0.00
2023-02-28T05:20:43.150Z,0.00
2023-02-28T05:21:43.123Z,0.00
2023-02-28T05:22:43.106Z,0.00
2023-02-28T05:23:43.128Z,0.00
2023-02-28T05:24:43.060Z,0.00
2023-02-28T05:25:43.071Z,0.00
2023-02-28T05:26:43.053Z,0.00
2023-02-28T05:27:43.044Z,0.00
2023-02-28T05:28:43.019Z,0.00
2023-02-28T05:29:43.695Z,0.00
2023-02-28T05:30:43.020Z,0.00
2023-02-28T05:31:43.039Z,0.00
2023-02-28T05:32:42.976Z,0.00
2023-02-28T05:33:43.033Z,0.00
2023-02-28T05:34:43.181Z,0.00
2023-02-28T05:35:43.097Z,0.00
2023-02-28T05:36:43.737Z,0.00
2023-02-28T05:37:42.915Z,0.00
2023-02-28T05:38:42.937Z,0.00
2023-02-28T05:39:42.914Z,0.00
2023-02-28T05:40:42.902Z,0.00
2023-02-28T05:41:42.899Z,0.00
2023-02-28T05:42:42.892Z,0.00
2023-02-28T05:43:42.865Z,0.00
2023-02-28T05:44:42.864Z,0.00
2023-02-28T05:45:42.851Z,0.00
2023-02-28T05:46:43.030Z,0.00
2023-02-28T05:47:42.821Z,0.00
2023-02-28T05:48:42.862Z,0.00
2023-02-28T05:49:42.836Z,0.00
2023-02-28T05:50:42.843Z,0.00
2023-02-28T05:51:43.311Z,0.00
2023-02-28T05:52:43.123Z,0.00
2023-02-28T05:53:42.772Z,0.00
2023-02-28T05:54:42.735Z,0.00
2023-02-28T05:55:42.723Z,4.00
2023-02-28T05:56:42.712Z,4.00
2023-02-28T05:57:42.698Z,4.00
2023-02-28T05:58:42.721Z,4.00
2023-02-28T05:59:42.669Z,0.00
2023-02-28T06:00:43.437Z,0.00
2023-02-28T06:01:42.657Z,0.00
2023-02-28T06:02:42.702Z,0.00
2023-02-28T06:03:42.727Z,4.00
2023-02-28T06:04:42.675Z,4.00
2023-02-28T06:05:42.636Z,4.00
2023-02-28T06:06:42.643Z,4.00
2023-02-28T06:07:42.659Z,4.00
2023-02-28T06:08:42.702Z,4.00
2023-02-28T06:09:42.657Z,0.00
2023-02-28T06:10:42.597Z,4.00
2023-02-28T06:11:42.653Z,4.00
2023-02-28T06:12:42.537Z,4.00
2023-02-28T06:13:42.512Z,4.00
2023-02-28T06:14:42.560Z,4.00
2023-02-28T06:15:42.517Z,4.00
2023-02-28T06:16:42.541Z,8.00
2023-02-28T06:17:42.490Z,8.00
2023-02-28T06:18:42.480Z,4.00
2023-02-28T06:19:42.510Z,4.00
2023-02-28T06:20:42.475Z,4.00
2023-02-28T06:21:42.452Z,4.00
2023-02-28T06:22:42.466Z,8.00
2023-02-28T06:23:42.531Z,8.00
2023-02-28T06:24:42.407Z,8.00
2023-02-28T06:25:42.501Z,8.00
2023-02-28T06:26:42.427Z,8.00
2023-02-28T06:27:42.411Z,8.00
2023-02-28T06:28:42.446Z,8.00
2023-02-28T06:29:42.361Z,8.00
2023-02-28T06:30:42.345Z,8.00
2023-02-28T06:31:42.372Z,12.00
2023-02-28T06:32:42.448Z,8.00
2023-02-28T06:33:42.333Z,8.00
2023-02-28T06:34:43.097Z,8.00
2023-02-28T06:35:42.410Z,8.00
2023-02-28T06:36:42.442Z,8.00
2023-02-28T06:37:42.279Z,12.00
2023-02-28T06:38:42.331Z,8.00
2023-02-28T06:39:42.264Z,12.00
2023-02-28T06:40:42.237Z,12.00
2023-02-28T06:41:53.959Z,12.00
2023-02-28T06:42:43.218Z,12.00
2023-02-28T06:43:42.198Z,12.00
2023-02-28T06:44:42.218Z,12.00
2023-02-28T06:45:42.184Z,12.00
2023-02-28T06:46:42.160Z,12.00
2023-02-28T06:47:42.203Z,12.00
2023-02-28T06:48:42.132Z,16.00
2023-02-28T06:49:42.170Z,12.00
2023-02-28T06:50:42.350Z,12.00
2023-02-28T06:51:42.123Z,12.00
2023-02-28T06:52:42.100Z,16.00
2023-02-28T06:53:42.180Z,12.00
2023-02-28T06:54:42.073Z,12.00
2023-02-28T06:55:42.078Z,16.00
2023-02-28T06:56:42.086Z,16.00
2023-02-28T06:57:42.055Z,12.00
2023-02-28T06:58:42.078Z,16.00
2023-02-28T06:59:42.052Z,16.00
2023-02-28T07:00:42.028Z,20.00
2023-02-28T07:01:42.053Z,16.00
2023-02-28T07:02:42.030Z,20.00
2023-02-28T07:03:41.964Z,16.00
2023-02-28T07:04:42.017Z,20.00
2023-02-28T07:05:41.934Z,20.00
2023-02-28T07:06:41.963Z,20.00
2023-02-28T07:07:41.958Z,24.00
2023-02-28T07:08:41.922Z,24.00
2023-02-28T07:09:41.902Z,28.00
2023-02-28T07:10:41.895Z,24.00
2023-02-28T07:11:41.876Z,28.00
2023-02-28T07:12:41.906Z,28.00
2023-02-28T07:13:41.872Z,32.00
2023-02-28T07:14:41.853Z,28.00
2023-02-28T07:15:44.141Z,32.00
2023-02-28T07:16:41.828Z,32.00
2023-02-28T07:17:41.828Z,32.00
2023-02-28T07:18:41.885Z,28.00
2023-02-28T07:19:41.832Z,28.00
2023-02-28T07:20:41.806Z,28.00
2023-02-28T07:21:41.770Z,32.00
2023-02-28T07:22:41.765Z,32.00
2023-02-28T07:23:41.777Z,28.00
2023-02-28T07:24:41.832Z,28.00
2023-02-28T07:25:41.734Z,28.00
2023-02-28T07:26:41.736Z,28.00
2023-02-28T07:27:42.349Z,28.00
2023-02-28T07:28:41.748Z,32.00
2023-02-28T07:29:41.762Z,32.00
2023-02-28T07:30:41.724Z,36.00
2023-02-28T07:31:41.892Z,36.00
2023-02-28T07:32:43.890Z,40.00
2023-02-28T07:33:41.701Z,48.00
2023-02-28T07:34:41.621Z,48.00
2023-02-28T07:35:41.613Z,48.00
2023-02-28T07:36:41.589Z,48.00
2023-02-28T07:37:41.584Z,52.00
2023-02-28T07:38:41.577Z,52.00
2023-02-28T07:39:41.574Z,52.00
2023-02-28T07:40:41.574Z,52.00
2023-02-28T07:41:41.557Z,52.00
2023-02-28T07:42:41.546Z,56.00
2023-02-28T07:43:41.515Z,60.00
2023-02-28T07:44:41.542Z,60.00
2023-02-28T07:45:41.597Z,56.00
2023-02-28T07:46:41.561Z,56.00
2023-02-28T07:47:41.498Z,48.00
2023-02-28T07:48:41.467Z,48.00
2023-02-28T07:49:41.468Z,52.00
2023-02-28T07:50:41.441Z,52.00
2023-02-28T07:51:41.517Z,48.00
2023-02-28T07:52:41.428Z,48.00
2023-02-28T07:53:41.429Z,56.00
2023-02-28T07:54:41.410Z,60.00
2023-02-28T07:55:41.392Z,56.00
2023-02-28T07:56:41.387Z,60.00
2023-02-28T07:57:41.508Z,60.00
2023-02-28T07:58:41.375Z,64.00
2023-02-28T07:59:41.336Z,60.00
2023-02-28T08:00:41.449Z,64.00
2023-02-28T08:01:41.340Z,72.00
2023-02-28T08:02:41.310Z,76.00
2023-02-28T08:03:41.309Z,80.00
2023-02-28T08:04:41.491Z,80.00
2023-02-28T08:05:41.366Z,84.00
2023-02-28T08:06:41.286Z,84.00
2023-02-28T08:07:41.296Z,88.00
2023-02-28T08:08:41.307Z,88.00
2023-02-28T08:09:41.247Z,88.00
2023-02-28T08:10:41.238Z,96.00
2023-02-28T08:11:41.240Z,92.00
2023-02-28T08:12:41.218Z,96.00
2023-02-28T08:13:41.204Z,100.00
2023-02-28T08:14:41.187Z,96.00
2023-02-28T08:15:41.225Z,96.00
2023-02-28T08:16:41.206Z,96.00
2023-02-28T08:17:41.166Z,96.00
2023-02-28T08:18:41.140Z,104.00
2023-02-28T08:19:41.185Z,104.00
2023-02-28T08:20:41.133Z,108.00
2023-02-28T08:21:41.123Z,116.00
2023-02-28T08:22:41.096Z,120.00
2023-02-28T08:23:41.082Z,124.00
2023-02-28T08:24:41.079Z,128.00
2023-02-28T08:25:41.080Z,128.00
2023-02-28T08:26:41.126Z,136.00
2023-02-28T08:27:41.063Z,136.00
2023-02-28T08:28:41.032Z,132.00
2023-02-28T08:29:41.032Z,136.00
2023-02-28T08:30:41.025Z,136.00
2023-02-28T08:31:41.113Z,140.00
2023-02-28T08:32:41.170Z,144.00
2023-02-28T08:33:41.008Z,148.00
2023-02-28T08:34:40.952Z,156.00
2023-02-28T08:35:40.973Z,156.00
2023-02-28T08:36:41.093Z,164.00
2023-02-28T08:37:40.967Z,164.00
2023-02-28T08:38:40.934Z,168.00
2023-02-28T08:39:40.904Z,172.00
2023-02-28T08:40:40.907Z,172.00
2023-02-28T08:41:40.904Z,176.00
2023-02-28T08:42:40.864Z,176.00
2023-02-28T08:43:40.913Z,180.00
2023-02-28T08:44:40.854Z,180.00
2023-02-28T08:45:40.901Z,180.00
2023-02-28T08:46:40.844Z,180.00
2023-02-28T08:47:40.828Z,180.00
2023-02-28T08:48:40.925Z,180.00
2023-02-28T08:49:40.833Z,184.00
2023-02-28T08:50:40.793Z,180.00
2023-02-28T08:51:40.796Z,184.00
2023-02-28T08:52:40.802Z,184.00
2023-02-28T08:53:40.748Z,184.00
2023-02-28T08:54:40.791Z,184.00
2023-02-28T08:55:40.764Z,184.00
2023-02-28T08:56:40.720Z,184.00
2023-02-28T08:57:40.747Z,188.00
2023-02-28T08:58:40.710Z,188.00
2023-02-28T08:59:40.662Z,188.00
2023-02-28T09:00:41.738Z,184.00
2023-02-28T09:01:40.660Z,188.00
2023-02-28T09:02:40.660Z,188.00
2023-02-28T09:03:40.648Z,188.00
2023-02-28T09:04:40.635Z,188.00
2023-02-28T09:05:40.604Z,188.00
2023-02-28T09:06:40.590Z,188.00
2023-02-28T09:07:40.610Z,192.00
2023-02-28T09:08:40.585Z,192.00
2023-02-28T09:09:41.253Z,188.00
2023-02-28T09:10:40.567Z,188.00
2023-02-28T09:11:40.601Z,192.00
2023-02-28T09:12:40.571Z,192.00
2023-02-28T09:13:40.627Z,192.00
2023-02-28T09:14:40.534Z,192.00
2023-02-28T09:15:40.486Z,196.00
2023-02-28T09:16:40.706Z,192.00
2023-02-28T09:17:40.500Z,196.00
2023-02-28T09:18:40.505Z,196.00
2023-02-28T09:19:40.481Z,196.00
2023-02-28T09:20:40.455Z,196.00
2023-02-28T09:21:40.440Z,196.00
2023-02-28T09:22:40.458Z,200.00
2023-02-28T09:23:40.408Z,196.00
2023-02-28T09:25:40.407Z,196.00
2023-02-28T09:26:43.421Z,196.00
2023-02-28T09:27:42.369Z,196.00
2023-02-28T09:28:40.359Z,200.00
2023-02-28T09:29:40.358Z,200.00
2023-02-28T09:30:40.350Z,196.00
2023-02-28T09:31:40.350Z,200.00
2023-02-28T09:32:40.317Z,196.00
2023-02-28T09:33:40.302Z,200.00
2023-02-28T09:34:40.360Z,200.00
2023-02-28T09:35:40.719Z,200.00
2023-02-28T09:36:45.730Z,200.00
2023-02-28T09:37:41.286Z,196.00
2023-02-28T09:38:40.271Z,196.00
2023-02-28T09:39:40.238Z,200.00
2023-02-28T09:40:40.220Z,200.00
2023-02-28T09:41:40.217Z,196.00
2023-02-28T09:42:40.220Z,200.00
2023-02-28T09:43:40.202Z,196.00
2023-02-28T09:44:40.203Z,196.00
2023-02-28T09:45:40.209Z,196.00
2023-02-28T09:46:40.251Z,196.00
2023-02-28T09:47:40.273Z,192.00
2023-02-28T09:48:41.167Z,196.00
2023-02-28T09:49:40.128Z,196.00
2023-02-28T09:50:40.119Z,192.00
2023-02-28T09:51:40.106Z,196.00
2023-02-28T09:52:40.130Z,196.00
2023-02-28T09:53:40.156Z,196.00
2023-02-28T09:54:40.089Z,196.00
2023-02-28T09:55:46.486Z,196.00
2023-02-28T09:56:41.063Z,196.00
2023-02-28T09:57:40.352Z,200.00
2023-02-28T09:58:40.026Z,200.00
2023-02-28T09:59:40.031Z,200.00
2023-02-28T10:00:40.024Z,200.00
2023-02-28T10:01:40.060Z,200.00
2023-02-28T10:02:40.088Z,204.00
2023-02-28T10:03:40.011Z,204.00
2023-02-28T10:04:40.803Z,208.00
2023-02-28T10:05:40.104Z,212.00
2023-02-28T10:06:40.035Z,208.00
2023-02-28T10:07:39.938Z,212.00
2023-02-28T10:08:39.937Z,212.00
2023-02-28T10:09:40.049Z,216.00
2023-02-28T10:10:39.935Z,212.00
2023-02-28T10:11:39.903Z,216.00
2023-02-28T10:12:39.888Z,216.00
2023-02-28T10:13:39.870Z,216.00
2023-02-28T10:14:39.842Z,216.00
2023-02-28T10:15:39.957Z,216.00
2023-02-28T10:16:39.867Z,216.00
2023-02-28T10:17:49.435Z,216.00
2023-02-28T10:18:40.813Z,220.00
2023-02-28T10:19:39.784Z,216.00
2023-02-28T10:20:39.825Z,220.00
2023-02-28T10:21:39.807Z,220.00
2023-02-28T10:22:39.751Z,220.00
2023-02-28T10:23:39.765Z,220.00
2023-02-28T10:24:39.767Z,220.00
2023-02-28T10:25:39.731Z,220.00
2023-02-28T10:26:39.764Z,224.00
2023-02-28T10:27:39.714Z,224.00
2023-02-28T10:28:39.725Z,224.00
2023-02-28T10:29:39.695Z,220.00
2023-02-28T10:30:39.763Z,224.00
2023-02-28T10:31:39.680Z,224.00
2023-02-28T10:32:39.679Z,220.00
2023-02-28T10:33:39.659Z,220.00
2023-02-28T10:34:39.668Z,220.00
2023-02-28T10:35:39.632Z,216.00
2023-02-28T10:36:39.726Z,212.00
2023-02-28T10:37:39.623Z,216.00
2023-02-28T10:38:39.607Z,212.00
2023-02-28T10:39:39.714Z,216.00
2023-02-28T10:40:39.569Z,212.00
2023-02-28T10:41:39.800Z,212.00
2023-02-28T10:42:39.553Z,212.00
2023-02-28T10:43:39.581Z,216.00
2023-02-28T10:44:39.742Z,216.00
2023-02-28T10:45:39.541Z,220.00
2023-02-28T10:46:39.560Z,220.00
2023-02-28T10:47:39.507Z,224.00
2023-02-28T10:48:39.488Z,224.00
2023-02-28T10:49:39.474Z,228.00
2023-02-28T10:50:39.494Z,236.00
2023-02-28T10:51:39.463Z,236.00
2023-02-28T10:52:39.597Z,240.00
2023-02-28T10:53:57.687Z,244.00
2023-02-28T10:54:40.528Z,244.00
2023-02-28T10:55:39.406Z,244.00
2023-02-28T10:56:39.394Z,244.00
2023-02-28T10:57:39.364Z,244.00
2023-02-28T10:58:39.373Z,244.00
2023-02-28T10:59:39.351Z,244.00
2023-02-28T11:00:39.358Z,244.00
2023-02-28T11:01:39.360Z,244.00
2023-02-28T11:02:39.481Z,244.00
2023-02-28T11:03:39.294Z,244.00
2023-02-28T11:04:39.361Z,248.00
2023-02-28T11:05:39.298Z,252.00
2023-02-28T11:06:39.294Z,248.00
2023-02-28T11:07:50.602Z,252.00
2023-02-28T11:08:40.261Z,252.00
2023-02-28T11:09:39.236Z,252.00
2023-02-28T11:10:39.303Z,252.00
2023-02-28T11:11:39.217Z,252.00
2023-02-28T11:12:46.858Z,252.00
2023-02-28T11:13:40.206Z,252.00
2023-02-28T11:14:39.190Z,248.00
2023-02-28T11:15:39.254Z,248.00
2023-02-28T11:16:39.327Z,248.00
2023-02-28T11:17:39.221Z,244.00
2023-02-28T11:18:39.187Z,244.00
2023-02-28T11:19:39.131Z,244.00
2023-02-28T11:20:39.140Z,244.00
2023-02-28T11:21:39.107Z,244.00
2023-02-28T11:22:39.135Z,240.00
2023-02-28T11:23:39.106Z,236.00
2023-02-28T11:24:39.168Z,236.00
2023-02-28T11:25:39.077Z,236.00
2023-02-28T11:26:39.081Z,232.00
2023-02-28T11:27:39.086Z,228.00
2023-02-28T11:28:39.057Z,228.00
2023-02-28T11:29:39.003Z,224.00
2023-02-28T11:30:39.039Z,220.00
2023-02-28T11:31:39.091Z,216.00
2023-02-28T11:32:39.056Z,216.00
2023-02-28T11:33:39.197Z,216.00
2023-02-28T11:34:38.976Z,216.00
2023-02-28T11:35:39.021Z,216.00
2023-02-28T11:36:38.949Z,216.00
2023-02-28T11:37:38.953Z,216.00
2023-02-28T11:38:38.953Z,216.00
2023-02-28T11:39:38.899Z,212.00
2023-02-28T11:40:38.883Z,212.00
2023-02-28T11:41:41.223Z,216.00
2023-02-28T11:42:38.865Z,212.00
2023-02-28T11:43:38.866Z,216.00
2023-02-28T11:44:38.920Z,216.00
2023-02-28T11:45:38.818Z,216.00
2023-02-28T11:46:38.939Z,220.00
2023-02-28T11:47:38.834Z,220.00
2023-02-28T11:48:38.953Z,220.00
2023-02-28T11:49:38.821Z,220.00
2023-02-28T11:50:38.785Z,216.00
2023-02-28T11:51:38.764Z,220.00
2023-02-28T11:52:38.770Z,216.00
2023-02-28T11:53:38.764Z,216.00
2023-02-28T11:54:38.790Z,216.00
2023-02-28T11:55:38.772Z,212.00
2023-02-28T11:56:38.731Z,212.00
2023-02-28T11:57:38.756Z,212.00
2023-02-28T11:58:38.718Z,212.00
2023-02-28T11:59:38.865Z,212.00
2023-02-28T12:00:38.776Z,208.00
2023-02-28T12:01:38.660Z,204.00
2023-02-28T12:02:38.696Z,208.00
2023-02-28T12:03:38.724Z,204.00
2023-02-28T12:04:38.633Z,204.00
2023-02-28T12:05:38.635Z,204.00
2023-02-28T12:06:38.683Z,200.00
2023-02-28T12:07:38.608Z,204.00
2023-02-28T12:08:38.592Z,204.00
2023-02-28T12:09:38.560Z,200.00
2023-02-28T12:10:38.572Z,204.00
2023-02-28T12:11:38.563Z,200.00
2023-02-28T12:12:38.552Z,200.00
2023-02-28T12:13:38.685Z,200.00
2023-02-28T12:14:38.527Z,200.00
2023-02-28T12:15:38.501Z,196.00
2023-02-28T12:16:38.614Z,196.00
2023-02-28T12:17:38.493Z,200.00
2023-02-28T12:18:38.549Z,196.00
2023-02-28T12:19:38.474Z,200.00
2023-02-28T12:20:38.466Z,196.00
2023-02-28T12:21:38.440Z,196.00
2023-02-28T12:22:38.461Z,196.00
2023-02-28T12:23:38.412Z,196.00
2023-02-28T12:24:38.418Z,196.00
2023-02-28T12:25:38.394Z,196.00
2023-02-28T12:26:38.387Z,192.00
2023-02-28T12:27:38.402Z,196.00
2023-02-28T12:28:38.452Z,188.00
2023-02-28T12:29:38.560Z,192.00
2023-02-28T12:30:38.339Z,188.00
2023-02-28T12:31:38.353Z,188.00
2023-02-28T12:32:38.676Z,184.00
2023-02-28T12:33:38.461Z,180.00
2023-02-28T12:34:38.310Z,176.00
2023-02-28T12:35:38.328Z,176.00
2023-02-28T12:36:38.301Z,172.00
2023-02-28T12:37:38.461Z,172.00
2023-02-28T12:38:38.398Z,164.00
2023-02-28T12:39:49.556Z,164.00
2023-02-28T12:40:39.275Z,168.00
2023-02-28T12:41:38.331Z,164.00
2023-02-28T12:42:38.417Z,164.00
2023-02-28T12:43:38.226Z,160.00
2023-02-28T12:44:38.585Z,156.00
2023-02-28T12:45:38.322Z,160.00
2023-02-28T12:46:38.255Z,156.00
2023-02-28T12:47:38.237Z,152.00
2023-02-28T12:48:38.144Z,152.00
2023-02-28T12:49:38.129Z,156.00
2023-02-28T12:50:38.155Z,152.00
2023-02-28T12:51:38.164Z,152.00
2023-02-28T12:52:38.116Z,148.00
2023-02-28T12:53:38.109Z,152.00
2023-02-28T12:54:38.079Z,144.00
2023-02-28T12:55:38.361Z,144.00
2023-02-28T12:56:38.119Z,140.00
2023-02-28T12:57:38.455Z,140.00
2023-02-28T12:58:38.087Z,140.00
2023-02-28T12:59:38.122Z,140.00
2023-02-28T13:00:38.022Z,140.00
2023-02-28T13:01:38.042Z,140.00